Albany, NY (12205)

7:58 AM EDT on August 26, 2016 (GMT -0400)
South Colonie - Cook Park Area | | Change Station

Elev 318 ft 42.71 °N, 73.84 °W | Updated 1 minute ago

Mostly Cloudy
Mostly Cloudy
72.7 °F
Feels Like 72.7 °F
N
0.0
Wind Variable Wind from SSE

Today
High -- | Low -- °F
--% Chance of Precip.
Yesterday
High -- | Low -- °F
Precip. -- in
Pressure 29.96 in
Visibility 3.0 miles
Clouds Few 500 ft
Mostly Cloudy 6000 ft
Mostly Cloudy 14000 ft
Dew Point 70 °F
Humidity 92%
Rainfall 0.02 in
Snow Depth Not available.
6:14 AM 7:38 PM
Waning Crescent, 35% visible
METAR KALB 261151Z 20005KT 3SM BR FEW005 BKN060 BKN140 23/22 A2996 RMK AO2 SFC VIS 4 SLP145 60006 70032 T02280217 10228 20222 53010
Pressure 29.96 in
Visibility 3.0 miles
Clouds Few 500 ft
Mostly Cloudy 6000 ft
Mostly Cloudy 14000 ft
Dew Point 70 °F
Humidity 92%
Rainfall 0.02 in
Snow Depth Not available.
6:14 AM 7:38 PM
Waning Crescent, 35% visible
METAR KALB 261151Z 20005KT 3SM BR FEW005 BKN060 BKN140 23/22 A2996 RMK AO2 SFC VIS 4 SLP145 60006 70032 T02280217 10228 20222 53010

10-Day Weather Forecast

Almanac

Astronomy

Aug. 26, 2016 Rise Set
Actual Time
Civil Twilight
Nautical Twilight
Astronomical Twilight
Moon
Length of Visible Light
Length of Day
Tomorrow will be .
, % of the Moon is Illuminated

Today's Extremes

State Highs State Lows

Community

WunderPhotos

Upload Photos

1,935,071 photos uploaded!

WunderBlog® & News

Nearby

Air Quality

  Air Quality AQ Index Pollutant
Not available.

Snow Depth

Station Depth Elevation

Earthquake Activity

City Distance Mag. Time & Date
Minimum magnitude displayed is 2.5.

Coastal Water Temperatures

Place Temperature

Stations

Nearby Weather Stations

Station Location Temp. Windchill Dew Point Humidity Wind Precip. Elev Updated Type
                   

Watches & Warnings

There are currently no watches in effect.